createdAt,value
2023-03-31T00:01:47.276Z,100500.97
2023-03-31T00:04:14.834Z,100499.00
2023-03-31T00:06:42.755Z,100476.47
2023-03-31T00:09:13.049Z,100484.56
2023-03-31T00:11:40.645Z,100493.63
2023-03-31T00:14:09.430Z,100482.06
2023-03-31T00:16:37.486Z,100465.25
2023-03-31T00:19:05.862Z,100479.56
2023-03-31T00:21:36.958Z,100489.63
2023-03-31T00:24:06.361Z,100484.97
2023-03-31T00:26:34.462Z,100485.38
2023-03-31T00:29:02.047Z,100486.06
2023-03-31T00:31:30.853Z,100395.63
2023-03-31T00:33:58.273Z,100484.78
2023-03-31T00:36:29.249Z,100403.22
2023-03-31T00:39:02.430Z,100482.19
2023-03-31T00:41:30.284Z,100477.81
2023-03-31T00:44:08.337Z,100475.03
2023-03-31T00:46:42.300Z,100434.41
2023-03-31T00:49:20.901Z,100472.34
2023-03-31T00:51:51.012Z,100472.03
2023-03-31T00:54:19.660Z,100475.94
2023-03-31T00:56:48.677Z,100473.81
2023-03-31T00:59:16.544Z,100472.28
2023-03-31T01:01:48.335Z,100418.53
2023-03-31T01:04:16.790Z,100471.28
2023-03-31T01:06:57.395Z,100464.81
2023-03-31T01:09:25.418Z,100426.06
2023-03-31T01:11:52.493Z,100442.63
2023-03-31T01:14:19.810Z,100444.06
2023-03-31T01:16:48.148Z,100469.97
2023-03-31T01:19:26.107Z,100468.63
2023-03-31T01:22:31.969Z,100460.78
2023-03-31T01:25:32.662Z,100440.53
2023-03-31T01:28:15.799Z,100451.44
2023-03-31T01:31:18.496Z,100464.06
2023-03-31T01:34:36.012Z,100457.59
2023-03-31T01:37:26.533Z,100456.06
2023-03-31T01:40:19.934Z,100452.94
2023-03-31T01:42:53.275Z,100418.75
2023-03-31T01:45:33.756Z,100441.59
2023-03-31T01:48:08.341Z,100442.81
2023-03-31T01:50:38.406Z,100452.19
2023-03-31T01:53:15.115Z,100420.47
2023-03-31T01:55:50.737Z,100448.13
2023-03-31T01:58:21.796Z,100438.13
2023-03-31T02:00:57.618Z,100439.41
2023-03-31T02:03:30.336Z,100451.78
2023-03-31T02:06:01.011Z,100432.53
2023-03-31T02:08:32.725Z,100427.91
2023-03-31T02:11:01.569Z,100428.13
2023-03-31T02:13:30.137Z,100432.47
2023-03-31T02:16:03.581Z,100395.75
2023-03-31T02:18:38.328Z,100435.97
2023-03-31T02:21:08.828Z,100425.94
2023-03-31T02:23:38.131Z,100406.63
2023-03-31T02:26:12.126Z,100430.66
2023-03-31T02:28:39.784Z,100412.09
2023-03-31T02:31:20.411Z,100423.34
2023-03-31T02:33:48.252Z,100403.53
2023-03-31T02:36:16.198Z,100401.69
2023-03-31T02:38:47.798Z,100412.75
2023-03-31T02:41:16.485Z,100404.78
2023-03-31T02:43:43.460Z,100403.91
2023-03-31T02:46:10.546Z,100415.84
2023-03-31T02:48:41.736Z,100411.81
2023-03-31T02:51:42.296Z,100408.00
2023-03-31T02:54:31.856Z,100394.09
2023-03-31T02:57:27.166Z,100403.00
2023-03-31T03:00:08.211Z,100401.63
2023-03-31T03:02:49.284Z,100375.75
2023-03-31T03:05:28.532Z,100393.25
2023-03-31T03:07:59.121Z,100421.19
2023-03-31T03:10:35.714Z,100414.47
2023-03-31T03:13:12.322Z,100411.69
2023-03-31T03:15:46.236Z,100409.84
2023-03-31T03:18:14.241Z,100389.75
2023-03-31T03:20:43.408Z,100413.03
2023-03-31T03:23:10.418Z,100404.66
2023-03-31T03:25:37.840Z,100395.31
2023-03-31T03:28:07.202Z,100409.16
2023-03-31T03:30:34.594Z,100408.47
2023-03-31T03:33:02.041Z,100418.81
2023-03-31T03:35:29.430Z,100420.63
2023-03-31T03:37:56.410Z,100425.00
2023-03-31T03:40:24.030Z,100421.91
2023-03-31T03:42:51.071Z,100450.81
2023-03-31T03:45:20.118Z,100442.16
2023-03-31T03:47:47.115Z,100413.16
2023-03-31T03:50:16.186Z,100454.94
2023-03-31T03:52:44.301Z,100447.78
2023-03-31T03:55:12.267Z,100397.22
2023-03-31T03:57:39.486Z,100443.31
2023-03-31T04:00:12.378Z,100436.97
2023-03-31T04:02:41.158Z,100438.13
2023-03-31T04:05:09.746Z,100433.63
2023-03-31T04:07:36.729Z,100420.13
2023-03-31T04:10:04.180Z,100440.63
2023-03-31T04:12:33.854Z,100410.34
2023-03-31T04:15:01.301Z,100429.06
2023-03-31T04:17:34.759Z,100406.75
2023-03-31T04:20:07.568Z,100439.41
2023-03-31T04:22:41.054Z,100403.22
2023-03-31T04:25:15.042Z,100423.06
2023-03-31T04:27:54.896Z,100438.97
2023-03-31T04:30:23.308Z,100395.13
2023-03-31T04:32:51.477Z,100432.34
2023-03-31T04:35:20.873Z,100427.19
2023-03-31T04:37:48.527Z,100430.38
2023-03-31T04:40:16.566Z,100425.06
2023-03-31T04:42:43.948Z,100425.19
2023-03-31T04:45:12.254Z,100403.28
2023-03-31T04:47:39.511Z,100397.78
2023-03-31T04:50:08.647Z,100373.69
2023-03-31T04:52:38.837Z,100416.97
2023-03-31T04:55:07.384Z,100414.47
2023-03-31T04:57:34.311Z,100382.47
2023-03-31T05:00:01.698Z,100404.50
2023-03-31T05:02:28.778Z,100413.88
2023-03-31T05:04:56.406Z,100410.91
2023-03-31T05:07:23.578Z,100360.38
2023-03-31T05:09:52.205Z,100388.59
2023-03-31T05:12:20.735Z,100408.69
2023-03-31T05:14:48.073Z,100400.56
2023-03-31T05:17:17.979Z,100373.75
2023-03-31T05:19:45.129Z,100400.41
2023-03-31T05:22:12.086Z,100402.09
2023-03-31T05:24:39.306Z,100384.72
2023-03-31T05:27:07.799Z,100389.69
2023-03-31T05:29:35.167Z,100379.31
2023-03-31T05:32:02.269Z,100370.19
2023-03-31T05:34:30.095Z,100336.09
2023-03-31T05:36:57.875Z,100356.69
2023-03-31T05:39:25.237Z,100309.88
2023-03-31T05:41:52.256Z,100377.09
2023-03-31T05:44:21.227Z,100383.03
2023-03-31T05:46:48.330Z,100349.34
2023-03-31T05:49:17.032Z,100310.19
2023-03-31T05:51:43.976Z,100344.72
2023-03-31T05:54:11.465Z,100376.09
2023-03-31T05:56:38.635Z,100374.59
2023-03-31T05:59:06.380Z,100358.59
2023-03-31T06:01:34.956Z,100350.59
2023-03-31T06:04:02.945Z,100374.97
2023-03-31T06:06:30.334Z,100276.13
2023-03-31T06:08:57.726Z,100333.53
2023-03-31T06:11:24.790Z,100369.50
2023-03-31T06:13:52.047Z,100361.66
2023-03-31T06:16:19.837Z,100336.53
2023-03-31T06:18:48.728Z,100369.28
2023-03-31T06:21:18.533Z,100364.47
2023-03-31T06:23:46.202Z,100364.19
2023-03-31T06:26:14.547Z,100368.56
2023-03-31T06:28:41.958Z,100361.44
2023-03-31T06:31:12.631Z,100367.06
2023-03-31T06:33:41.792Z,100327.38
2023-03-31T06:36:13.112Z,100345.13
2023-03-31T06:38:40.657Z,100321.06
2023-03-31T06:41:09.559Z,100332.59
2023-03-31T06:43:37.096Z,100313.38
2023-03-31T06:46:05.084Z,100300.34
2023-03-31T06:48:32.549Z,100373.84
2023-03-31T06:51:00.626Z,100366.50
2023-03-31T06:53:29.486Z,100369.00
2023-03-31T06:55:57.001Z,100340.94
2023-03-31T06:58:24.236Z,100340.13
2023-03-31T07:00:51.562Z,100366.59
2023-03-31T07:03:22.391Z,100344.22
2023-03-31T07:05:50.305Z,100303.22
2023-03-31T07:08:18.411Z,100326.72
2023-03-31T07:10:49.306Z,100364.69
2023-03-31T07:13:17.856Z,100267.66
2023-03-31T07:15:47.888Z,100358.53
2023-03-31T07:18:15.987Z,100348.28
2023-03-31T07:20:43.841Z,100351.88
2023-03-31T07:23:11.458Z,100341.56
2023-03-31T07:25:38.492Z,100363.25
2023-03-31T07:28:07.213Z,100363.69
2023-03-31T07:30:34.406Z,100342.56
2023-03-31T07:33:01.731Z,100361.63
2023-03-31T07:35:31.061Z,100328.84
2023-03-31T07:37:59.132Z,100355.41
2023-03-31T07:40:29.242Z,100352.66
2023-03-31T07:42:57.120Z,100331.22
2023-03-31T07:45:27.039Z,100338.00
2023-03-31T07:47:54.648Z,100345.44
2023-03-31T07:50:22.797Z,100355.47
2023-03-31T07:52:50.690Z,100354.41
2023-03-31T07:55:19.868Z,100353.13
2023-03-31T07:57:47.814Z,100317.16
2023-03-31T08:00:16.033Z,100357.03
2023-03-31T08:02:44.871Z,100350.94
2023-03-31T08:05:16.456Z,100349.41
2023-03-31T08:07:45.932Z,100332.31
2023-03-31T08:10:16.274Z,100359.38
2023-03-31T08:12:43.888Z,100351.75
2023-03-31T08:15:11.526Z,100340.06
2023-03-31T08:17:39.274Z,100342.06
2023-03-31T08:20:10.404Z,100341.97
2023-03-31T08:22:38.666Z,100336.53
2023-03-31T08:25:08.352Z,100336.31
2023-03-31T08:27:37.169Z,100335.75
2023-03-31T08:30:05.191Z,100327.34
2023-03-31T08:32:33.503Z,100318.44
2023-03-31T08:35:00.839Z,100309.38
2023-03-31T08:37:29.584Z,100328.19
2023-03-31T08:39:56.634Z,100327.50
2023-03-31T08:42:33.768Z,100320.19
2023-03-31T08:45:04.737Z,100303.47
2023-03-31T08:47:35.008Z,100307.13
2023-03-31T08:50:07.433Z,100306.84
2023-03-31T08:52:41.660Z,100296.25
2023-03-31T08:55:13.788Z,100291.16
2023-03-31T08:57:52.396Z,100291.25
2023-03-31T09:00:20.360Z,100287.31
2023-03-31T09:02:55.628Z,100278.53
2023-03-31T09:05:53.081Z,100275.31
2023-03-31T09:08:36.205Z,100266.44
2023-03-31T09:11:11.958Z,100272.88
2023-03-31T09:13:53.783Z,100272.06
2023-03-31T09:16:26.718Z,100266.69
2023-03-31T09:18:57.144Z,100261.75
2023-03-31T09:21:30.668Z,100267.22
2023-03-31T09:24:05.441Z,100257.53
2023-03-31T09:26:38.452Z,100258.44
2023-03-31T09:29:14.469Z,100240.41
2023-03-31T09:31:44.687Z,100247.72
2023-03-31T09:34:15.660Z,100243.38
2023-03-31T09:36:43.252Z,100235.72
2023-03-31T09:39:15.000Z,100220.44
2023-03-31T09:41:45.660Z,100228.53
2023-03-31T09:44:36.580Z,100223.34
2023-03-31T09:47:10.920Z,100195.72
2023-03-31T09:49:39.754Z,100207.78
2023-03-31T09:52:16.106Z,100208.81
2023-03-31T09:54:50.024Z,100215.22
2023-03-31T09:57:26.438Z,100202.19
2023-03-31T09:59:54.174Z,100207.19
2023-03-31T10:02:30.434Z,100197.22
2023-03-31T10:04:57.826Z,100190.78
2023-03-31T10:07:26.289Z,100193.91
2023-03-31T10:09:55.134Z,100195.50
2023-03-31T10:12:24.514Z,100184.13
2023-03-31T10:14:53.468Z,100178.97
2023-03-31T10:17:22.770Z,100176.25
2023-03-31T10:19:52.747Z,100176.47
2023-03-31T10:22:28.409Z,100173.13
2023-03-31T10:25:10.660Z,100159.88
2023-03-31T10:27:42.164Z,100163.38
2023-03-31T10:30:12.605Z,100144.09
2023-03-31T10:32:43.202Z,100160.06
2023-03-31T10:35:23.113Z,100138.72
2023-03-31T10:37:54.515Z,100147.44
2023-03-31T10:40:26.129Z,100143.88
2023-03-31T10:43:01.788Z,100140.25
2023-03-31T10:45:37.450Z,100130.72
2023-03-31T10:48:16.918Z,100124.94
2023-03-31T10:50:44.314Z,100118.47
2023-03-31T10:53:14.193Z,100121.84
2023-03-31T10:55:54.125Z,100103.88
2023-03-31T10:58:34.417Z,100114.34
2023-03-31T11:01:17.077Z,100111.00
2023-03-31T11:03:59.320Z,100102.66
2023-03-31T11:06:34.054Z,100100.91
2023-03-31T11:09:14.708Z,100090.66
2023-03-31T11:12:02.108Z,100014.66
2023-03-31T11:14:40.492Z,100050.50
2023-03-31T11:17:12.800Z,100074.22
2023-03-31T11:19:50.516Z,100072.69
2023-03-31T11:22:26.292Z,100042.88
2023-03-31T11:25:18.942Z,100062.41
2023-03-31T11:28:17.587Z,100051.97
2023-03-31T11:30:51.245Z,100044.63
2023-03-31T11:33:44.543Z,100042.09
2023-03-31T11:36:36.869Z,100037.09
2023-03-31T11:39:22.135Z,100026.97
2023-03-31T11:41:52.284Z,100028.75
2023-03-31T11:44:24.477Z,99985.78
2023-03-31T11:46:56.090Z,100019.78
2023-03-31T11:49:27.240Z,100008.81
2023-03-31T11:51:57.056Z,99997.97
2023-03-31T11:54:31.489Z,99987.31
2023-03-31T11:57:02.321Z,99989.72
2023-03-31T11:59:32.907Z,99991.94
2023-03-31T12:02:11.285Z,99988.25
2023-03-31T12:04:42.896Z,99985.09
2023-03-31T12:07:24.256Z,99981.44
2023-03-31T12:10:05.419Z,99977.81
2023-03-31T12:12:35.940Z,99971.41
2023-03-31T12:15:14.080Z,99964.50
2023-03-31T12:17:43.640Z,99967.22
2023-03-31T12:20:17.932Z,99959.47
2023-03-31T12:22:48.491Z,99959.97
2023-03-31T12:25:22.881Z,99963.22
2023-03-31T12:27:51.702Z,99953.78
2023-03-31T12:30:28.546Z,99918.25
2023-03-31T12:33:01.190Z,99946.22
2023-03-31T12:35:39.022Z,99936.22
2023-03-31T12:38:17.553Z,99940.38
2023-03-31T12:40:58.851Z,99926.59
2023-03-31T12:43:49.083Z,99929.56
2023-03-31T12:46:29.635Z,99930.78
2023-03-31T12:49:11.445Z,99921.41
2023-03-31T12:52:01.027Z,99916.38
2023-03-31T12:55:09.573Z,99911.63
2023-03-31T12:57:38.356Z,99897.34
2023-03-31T13:00:24.149Z,99891.88
2023-03-31T13:03:34.146Z,99897.81
2023-03-31T13:06:03.041Z,99898.25
2023-03-31T13:08:52.196Z,99886.72
2023-03-31T13:11:20.987Z,99885.81
2023-03-31T13:16:48.080Z,99856.75
2023-03-31T13:19:28.191Z,99867.34
2023-03-31T13:21:58.181Z,99871.03
2023-03-31T13:24:27.415Z,99870.66
2023-03-31T13:26:59.369Z,99867.47
2023-03-31T13:29:40.504Z,99867.19
2023-03-31T13:32:23.062Z,99867.47
2023-03-31T13:34:58.794Z,99851.19
2023-03-31T13:37:45.106Z,99844.47
2023-03-31T13:40:33.748Z,99838.03
2023-03-31T13:43:34.242Z,99836.91
2023-03-31T13:46:23.519Z,99814.16
2023-03-31T13:49:01.446Z,99819.81
2023-03-31T13:51:55.347Z,99802.84
2023-03-31T13:54:55.007Z,99814.00
2023-03-31T13:58:24.945Z,99808.13
2023-03-31T14:01:25.632Z,99802.72
2023-03-31T14:04:04.768Z,99793.88
2023-03-31T14:06:38.107Z,99796.78
2023-03-31T14:09:08.093Z,99794.59
2023-03-31T14:11:36.606Z,99782.00
2023-03-31T14:14:07.670Z,99784.56
2023-03-31T14:16:39.270Z,99760.38
2023-03-31T14:19:29.112Z,99775.53
2023-03-31T14:22:03.444Z,99772.25
2023-03-31T14:24:38.027Z,99761.97
2023-03-31T14:27:18.658Z,99757.47
2023-03-31T14:29:57.861Z,99763.25
2023-03-31T14:32:37.138Z,99753.22
2023-03-31T14:35:26.674Z,99743.59
2023-03-31T14:37:55.254Z,99744.09
2023-03-31T14:40:23.211Z,99748.88
2023-03-31T14:42:51.649Z,99754.91
2023-03-31T14:45:22.150Z,99754.00
2023-03-31T14:47:57.285Z,99748.13
2023-03-31T14:50:31.325Z,99742.91
2023-03-31T14:52:59.640Z,99738.13
2023-03-31T14:55:35.639Z,99736.81
2023-03-31T14:58:21.486Z,99729.59
2023-03-31T15:00:49.036Z,99731.78
2023-03-31T15:03:17.673Z,99726.28
2023-03-31T15:05:48.850Z,99692.84
2023-03-31T15:08:19.724Z,99719.44
2023-03-31T15:10:54.013Z,99715.53
2023-03-31T15:13:33.790Z,99704.00
2023-03-31T15:16:18.985Z,99708.03
2023-03-31T15:18:51.766Z,99687.53
2023-03-31T15:21:21.654Z,99696.00
2023-03-31T15:23:53.066Z,99705.03
2023-03-31T15:26:34.392Z,99695.84
2023-03-31T15:29:11.861Z,99691.69
2023-03-31T15:31:41.148Z,99700.13
2023-03-31T15:34:27.963Z,99604.81
2023-03-31T15:36:57.238Z,99692.13
2023-03-31T15:39:24.833Z,99696.78
2023-03-31T15:42:01.168Z,99676.22
2023-03-31T15:44:38.014Z,99688.38
2023-03-31T15:47:16.194Z,99577.06
2023-03-31T15:49:54.900Z,99616.88
2023-03-31T15:52:27.675Z,99689.09
2023-03-31T15:54:55.030Z,99686.66
2023-03-31T15:57:32.028Z,99678.34
2023-03-31T16:00:00.894Z,99673.19
2023-03-31T16:02:39.854Z,99677.44
2023-03-31T16:07:48.066Z,99670.16
2023-03-31T16:10:19.253Z,99678.16
2023-03-31T16:12:53.847Z,99648.84
2023-03-31T16:15:31.506Z,99637.84
2023-03-31T16:18:02.763Z,99663.91
2023-03-31T16:20:33.386Z,99649.09
2023-03-31T16:23:01.182Z,99658.16
2023-03-31T16:25:31.429Z,99661.31
2023-03-31T16:28:01.191Z,99653.72
2023-03-31T16:30:37.266Z,99643.41
2023-03-31T16:33:07.108Z,99650.91
2023-03-31T16:35:39.741Z,99634.41
2023-03-31T16:38:08.800Z,99641.47
2023-03-31T16:40:38.984Z,99609.25
2023-03-31T16:43:12.077Z,99644.56
2023-03-31T16:45:58.001Z,99607.19
2023-03-31T16:48:27.348Z,99628.66
2023-03-31T16:50:56.411Z,99627.41
2023-03-31T16:53:31.511Z,99594.19
2023-03-31T16:56:00.995Z,99622.28
2023-03-31T16:58:29.500Z,99619.66
2023-03-31T17:00:58.097Z,99618.72
2023-03-31T17:03:26.122Z,99622.47
2023-03-31T17:05:56.856Z,99622.25
2023-03-31T17:08:27.978Z,99564.88
2023-03-31T17:11:02.130Z,99632.44
2023-03-31T17:13:30.858Z,99623.81
2023-03-31T17:18:49.664Z,99614.50
2023-03-31T17:21:19.961Z,99619.25
2023-03-31T17:23:49.763Z,99620.28
2023-03-31T17:26:20.727Z,99609.56
2023-03-31T17:28:48.107Z,99617.63
2023-03-31T17:31:18.242Z,99615.97
2023-03-31T17:33:46.347Z,99605.63
2023-03-31T17:36:13.759Z,99597.16
2023-03-31T17:38:42.030Z,99608.94
2023-03-31T17:41:11.450Z,99605.22
2023-03-31T17:43:39.083Z,99604.34
2023-03-31T17:46:12.918Z,99604.97
2023-03-31T17:48:43.270Z,99601.44
2023-03-31T17:51:13.853Z,99586.38
2023-03-31T17:53:41.950Z,99565.50
2023-03-31T17:56:09.116Z,99592.00
2023-03-31T17:58:36.265Z,99529.78
2023-03-31T18:01:04.948Z,99574.81
2023-03-31T18:03:32.507Z,99582.25
2023-03-31T18:06:05.029Z,99594.66
2023-03-31T18:08:33.149Z,99588.41
2023-03-31T18:11:01.040Z,99585.13
2023-03-31T18:13:29.123Z,99575.41
2023-03-31T18:15:56.711Z,99571.28
2023-03-31T18:18:26.720Z,99509.50
2023-03-31T18:20:53.909Z,99582.22
2023-03-31T18:23:23.906Z,99584.28
2023-03-31T18:25:51.710Z,99566.72
2023-03-31T18:28:22.190Z,99539.22
2023-03-31T18:30:49.315Z,99590.22
2023-03-31T18:33:16.738Z,99565.19
2023-03-31T18:35:44.493Z,99509.75
2023-03-31T18:38:12.123Z,99586.88
2023-03-31T18:40:47.930Z,99578.16
2023-03-31T18:43:15.278Z,99595.72
2023-03-31T18:45:45.292Z,99595.28
2023-03-31T18:48:12.792Z,99601.50
2023-03-31T18:50:39.811Z,99563.47
2023-03-31T18:53:07.469Z,99595.72
2023-03-31T18:55:34.646Z,99588.88
2023-03-31T18:58:03.722Z,99538.84
2023-03-31T19:00:30.925Z,99564.19
2023-03-31T19:02:58.572Z,99573.31
2023-03-31T19:05:25.712Z,99576.56
2023-03-31T19:07:53.130Z,99557.97
2023-03-31T19:10:20.177Z,99571.81
2023-03-31T19:12:48.643Z,99561.69
2023-03-31T19:15:17.539Z,99579.06
2023-03-31T19:17:45.197Z,99571.63
2023-03-31T19:20:18.497Z,99579.28
2023-03-31T19:22:49.299Z,99576.00
2023-03-31T19:25:17.691Z,99562.13
2023-03-31T19:27:45.218Z,99568.75
2023-03-31T19:30:18.277Z,99563.41
2023-03-31T19:32:47.680Z,99558.22
2023-03-31T19:35:21.248Z,99506.56
2023-03-31T19:37:48.904Z,99548.94
2023-03-31T19:40:16.086Z,99550.78
2023-03-31T19:42:44.447Z,99549.97
2023-03-31T19:45:11.721Z,99549.97
2023-03-31T19:47:40.725Z,99544.41
2023-03-31T19:50:08.756Z,99550.59
2023-03-31T19:52:36.651Z,99546.91
2023-03-31T19:55:07.224Z,99553.66
2023-03-31T19:57:34.090Z,99550.59
2023-03-31T20:00:04.002Z,99469.81
2023-03-31T20:02:32.412Z,99532.03
2023-03-31T20:05:01.806Z,99550.00
2023-03-31T20:07:30.199Z,99543.88
2023-03-31T20:09:57.509Z,99547.81
2023-03-31T20:12:24.504Z,99546.97
2023-03-31T20:14:51.845Z,99550.28
2023-03-31T20:17:20.616Z,99546.38
2023-03-31T20:19:48.020Z,99544.50
2023-03-31T20:22:16.793Z,99537.44
2023-03-31T20:24:44.169Z,99550.47
2023-03-31T20:27:11.203Z,99552.94
2023-03-31T20:29:38.724Z,99558.72
2023-03-31T20:32:05.952Z,99561.41
2023-03-31T20:34:34.068Z,99556.19
2023-03-31T20:37:02.318Z,99569.38
2023-03-31T20:39:31.179Z,99569.78
2023-03-31T20:41:58.152Z,99561.19
2023-03-31T20:44:25.613Z,99563.59
2023-03-31T20:46:52.765Z,99562.97
2023-03-31T20:49:20.074Z,99575.34
2023-03-31T20:51:49.103Z,99572.22
2023-03-31T20:54:17.018Z,99609.53
2023-03-31T20:56:45.583Z,99593.16
2023-03-31T20:59:15.029Z,99609.78
2023-03-31T21:01:42.489Z,99617.66
2023-03-31T21:04:11.307Z,99600.84
2023-03-31T21:06:40.377Z,99574.28
2023-03-31T21:09:08.788Z,99588.41
2023-03-31T21:11:35.833Z,99597.06
2023-03-31T21:14:05.790Z,99518.19
2023-03-31T21:16:33.666Z,99601.59
2023-03-31T21:19:01.201Z,99600.25
2023-03-31T21:21:29.015Z,99612.38
2023-03-31T21:23:56.492Z,99604.75
2023-03-31T21:26:25.034Z,99586.03
2023-03-31T21:28:56.215Z,99487.25
2023-03-31T21:31:26.114Z,99595.88
2023-03-31T21:33:57.538Z,99594.88
2023-03-31T21:36:25.772Z,99589.47
2023-03-31T21:38:54.285Z,99592.50
2023-03-31T21:41:24.208Z,99589.16
2023-03-31T21:43:52.299Z,99552.81
2023-03-31T21:46:21.134Z,99584.13
2023-03-31T21:48:50.425Z,99513.72
2023-03-31T21:51:18.366Z,99525.25
2023-03-31T21:53:46.066Z,99511.50
2023-03-31T21:56:13.189Z,99583.97
2023-03-31T21:58:40.597Z,99590.13
2023-03-31T22:01:08.612Z,99559.69
2023-03-31T22:03:36.764Z,99598.56
2023-03-31T22:06:09.522Z,99513.84
2023-03-31T22:08:38.119Z,99490.63
2023-03-31T22:11:06.881Z,99577.59
2023-03-31T22:13:35.324Z,99516.88
2023-03-31T22:16:02.647Z,99569.38
2023-03-31T22:18:30.954Z,99601.97
2023-03-31T22:20:58.250Z,99540.41
2023-03-31T22:23:27.768Z,99574.66
2023-03-31T22:25:55.040Z,99593.59
2023-03-31T22:28:22.252Z,99572.34
2023-03-31T22:30:49.382Z,99522.97
2023-03-31T22:33:16.759Z,99601.66
2023-03-31T22:35:43.868Z,99597.28
2023-03-31T22:38:12.755Z,99548.03
2023-03-31T22:40:41.406Z,99564.97
2023-03-31T22:43:08.855Z,99577.88
2023-03-31T22:45:36.510Z,99506.97
2023-03-31T22:48:05.051Z,99564.81
2023-03-31T22:50:32.752Z,99563.22
2023-03-31T22:52:59.977Z,99530.47
2023-03-31T22:55:27.327Z,99479.91
2023-03-31T22:57:55.979Z,99550.84
2023-03-31T23:00:23.013Z,99472.31
2023-03-31T23:02:50.740Z,99484.44
2023-03-31T23:05:17.938Z,99501.16
2023-03-31T23:07:45.395Z,99528.66
2023-03-31T23:10:12.477Z,99537.91
2023-03-31T23:12:39.986Z,99537.06
2023-03-31T23:15:09.035Z,99464.94
2023-03-31T23:17:36.649Z,99496.59
2023-03-31T23:20:04.760Z,99458.59
2023-03-31T23:22:32.050Z,99471.38
2023-03-31T23:24:58.977Z,99547.00
2023-03-31T23:27:26.243Z,99480.97
2023-03-31T23:29:53.158Z,99518.28
2023-03-31T23:32:21.977Z,99518.03
2023-03-31T23:34:48.992Z,99488.66
2023-03-31T23:37:16.550Z,99521.25
2023-03-31T23:39:43.633Z,99502.00
2023-03-31T23:42:13.766Z,99436.91
2023-03-31T23:44:40.849Z,99513.41
2023-03-31T23:47:08.117Z,99502.56
2023-03-31T23:49:36.716Z,99515.84
2023-03-31T23:52:04.731Z,99473.47
2023-03-31T23:54:31.737Z,99485.34
2023-03-31T23:56:58.927Z,99509.66
2023-03-31T23:59:25.955Z,99488.13
